createdAt,value
2023-11-12T00:00:55.522Z,5.94
2023-11-12T00:01:55.489Z,5.95
2023-11-12T00:02:56.875Z,5.95
2023-11-12T00:03:55.479Z,5.95
2023-11-12T00:04:56.823Z,5.95
2023-11-12T00:05:56.114Z,5.94
2023-11-12T00:06:55.371Z,5.94
2023-11-12T00:07:55.543Z,5.93
2023-11-12T00:08:55.328Z,5.93
2023-11-12T00:09:55.333Z,5.95
2023-11-12T00:10:56.107Z,5.96
2023-11-12T00:11:55.302Z,5.97
2023-11-12T00:12:55.296Z,5.98
2023-11-12T00:13:56.012Z,5.97
2023-11-12T00:14:55.289Z,5.97
2023-11-12T00:15:56.693Z,5.97
2023-11-12T00:16:55.999Z,5.97
2023-11-12T00:17:55.266Z,5.97
2023-11-12T00:18:56.619Z,5.97
2023-11-12T00:19:55.244Z,5.96
2023-11-12T00:20:55.208Z,5.95
2023-11-12T00:21:55.897Z,5.95
2023-11-12T00:22:55.264Z,5.95
2023-11-12T00:23:56.589Z,5.96
2023-11-12T00:24:55.887Z,5.97
2023-11-12T00:25:55.176Z,5.97
2023-11-12T00:26:56.520Z,5.97
2023-11-12T00:27:55.088Z,5.97
2023-11-12T00:28:55.725Z,5.98
2023-11-12T00:29:55.088Z,5.98
2023-11-12T00:30:55.026Z,5.97
2023-11-12T00:31:55.838Z,5.96
2023-11-12T00:32:55.180Z,5.96
2023-11-12T00:33:55.008Z,5.95
2023-11-12T00:34:55.528Z,5.95
2023-11-12T00:35:54.965Z,5.94
2023-11-12T00:36:55.537Z,5.94
2023-11-12T00:37:55.926Z,5.95
2023-11-12T00:38:54.980Z,5.95
2023-11-12T00:39:55.573Z,5.95
2023-11-12T00:40:54.929Z,5.95
2023-11-12T00:41:55.588Z,5.96
2023-11-12T00:42:55.171Z,5.97
2023-11-12T00:43:54.933Z,5.99
2023-11-12T00:44:56.264Z,6.00
2023-11-12T00:45:54.867Z,6.01
2023-11-12T00:46:54.852Z,6.01
2023-11-12T00:47:54.886Z,6.02
2023-11-12T00:48:54.792Z,6.03
2023-11-12T00:49:54.833Z,6.04
2023-11-12T00:50:54.771Z,6.06
2023-11-12T00:51:54.765Z,6.06
2023-11-12T00:52:54.857Z,6.07
2023-11-12T00:53:54.730Z,6.08
2023-11-12T00:54:54.885Z,6.08
2023-11-12T00:55:54.761Z,6.08
2023-11-12T00:56:54.718Z,6.08
2023-11-12T00:57:54.866Z,6.08
2023-11-12T00:58:54.914Z,6.09
2023-11-12T00:59:54.649Z,6.10
2023-11-12T01:00:55.375Z,6.11
2023-11-12T01:01:56.693Z,6.12
2023-11-12T01:02:55.397Z,6.13
2023-11-12T01:03:56.133Z,6.13
2023-11-12T01:04:55.317Z,6.13
2023-11-12T01:05:54.599Z,6.14
2023-11-12T01:06:54.977Z,6.14
2023-11-12T01:07:54.593Z,6.15
2023-11-12T01:08:55.944Z,6.15
2023-11-12T01:09:55.251Z,6.15
2023-11-12T01:10:54.569Z,6.15
2023-11-12T01:11:54.505Z,6.15
2023-11-12T01:12:54.495Z,6.15
2023-11-12T01:13:54.490Z,6.16
2023-11-12T01:14:56.933Z,6.16
2023-11-12T01:15:54.488Z,6.16
2023-11-12T01:16:54.437Z,6.17
2023-11-12T01:17:55.212Z,6.17
2023-11-12T01:18:54.434Z,6.17
2023-11-12T01:19:54.391Z,6.17
2023-11-12T01:20:54.445Z,6.18
2023-11-12T01:21:54.477Z,6.18
2023-11-12T01:22:54.339Z,6.19
2023-11-12T01:23:54.337Z,6.19
2023-11-12T01:24:54.490Z,6.19
2023-11-12T01:25:55.023Z,6.19
2023-11-12T01:26:54.315Z,6.19
2023-11-12T01:27:55.700Z,6.20
2023-11-12T01:28:54.958Z,6.20
2023-11-12T01:29:54.301Z,6.21
2023-11-12T01:30:54.289Z,6.21
2023-11-12T01:31:54.956Z,6.22
2023-11-12T01:32:55.639Z,6.23
2023-11-12T01:33:54.222Z,6.24
2023-11-12T01:34:54.186Z,6.24
2023-11-12T01:35:56.553Z,6.25
2023-11-12T01:36:54.193Z,6.25
2023-11-12T01:37:55.550Z,6.25
2023-11-12T01:38:54.824Z,6.25
2023-11-12T01:39:54.780Z,6.26
2023-11-12T01:40:54.153Z,6.27
2023-11-12T01:41:54.087Z,6.28
2023-11-12T01:42:54.893Z,6.28
2023-11-12T01:43:55.481Z,6.29
2023-11-12T01:44:54.772Z,6.30
2023-11-12T01:45:54.053Z,6.30
2023-11-12T01:46:54.025Z,6.31
2023-11-12T01:47:54.079Z,6.31
2023-11-12T01:48:54.652Z,6.29
2023-11-12T01:49:54.523Z,6.28
2023-11-12T01:50:53.959Z,6.26
2023-11-12T01:51:54.699Z,6.24
2023-11-12T01:52:53.965Z,6.21
2023-11-12T01:53:53.930Z,6.18
2023-11-12T01:54:54.525Z,6.15
2023-11-12T01:55:53.912Z,6.12
2023-11-12T01:56:54.160Z,6.09
2023-11-12T01:57:53.859Z,6.06
2023-11-12T01:58:53.879Z,6.04
2023-11-12T01:59:54.524Z,6.03
2023-11-12T02:00:53.891Z,6.01
2023-11-12T02:01:53.851Z,5.99
2023-11-12T02:02:53.875Z,5.97
2023-11-12T02:03:53.865Z,5.96
2023-11-12T02:04:54.585Z,5.96
2023-11-12T02:05:54.548Z,5.95
2023-11-12T02:06:53.785Z,5.95
2023-11-12T02:07:54.709Z,5.98
2023-11-12T02:08:53.776Z,6.00
2023-11-12T02:09:54.471Z,6.01
2023-11-12T02:10:54.426Z,6.01
2023-11-12T02:11:55.089Z,6.01
2023-11-12T02:12:53.851Z,6.01
2023-11-12T02:13:53.882Z,6.01
2023-11-12T02:14:53.910Z,6.02
2023-11-12T02:15:53.637Z,6.02
2023-11-12T02:16:53.618Z,6.02
2023-11-12T02:17:53.648Z,6.03
2023-11-12T02:18:54.308Z,6.02
2023-11-12T02:19:53.588Z,6.02
2023-11-12T02:20:53.571Z,6.03
2023-11-12T02:21:53.578Z,6.03
2023-11-12T02:22:53.680Z,6.04
2023-11-12T02:23:53.575Z,6.05
2023-11-12T02:24:53.506Z,6.06
2023-11-12T02:25:54.311Z,6.07
2023-11-12T02:26:53.493Z,6.07
2023-11-12T02:27:53.511Z,6.08
2023-11-12T02:28:54.869Z,6.09
2023-11-12T02:29:56.152Z,6.10
2023-11-12T02:30:53.566Z,6.11
2023-11-12T02:31:53.413Z,6.13
2023-11-12T02:32:53.478Z,6.13
2023-11-12T02:33:53.454Z,6.14
2023-11-12T02:34:53.372Z,6.15
2023-11-12T02:35:53.408Z,6.15
2023-11-12T02:36:53.665Z,6.15
2023-11-12T02:37:53.344Z,6.16
2023-11-12T02:38:53.363Z,6.16
2023-11-12T02:39:53.320Z,6.16
2023-11-12T02:40:53.376Z,6.16
2023-11-12T02:41:53.504Z,6.16
2023-11-12T02:42:53.325Z,6.16
2023-11-12T02:43:53.266Z,6.17
2023-11-12T02:44:53.233Z,6.16
2023-11-12T02:45:53.230Z,6.16
2023-11-12T02:46:53.271Z,6.16
2023-11-12T02:47:53.729Z,6.17
2023-11-12T02:48:53.182Z,6.17
2023-11-12T02:49:53.172Z,6.17
2023-11-12T02:50:53.155Z,6.18
2023-11-12T02:51:53.165Z,6.18
2023-11-12T02:52:55.611Z,6.19
2023-11-12T02:53:53.207Z,6.19
2023-11-12T02:54:53.097Z,6.19
2023-11-12T02:55:53.143Z,6.19
2023-11-12T02:56:53.116Z,6.20
2023-11-12T02:57:53.506Z,6.20
2023-11-12T02:58:53.064Z,6.20
2023-11-12T02:59:54.435Z,6.20
2023-11-12T03:00:53.117Z,6.20
2023-11-12T03:01:53.029Z,6.20
2023-11-12T03:02:53.110Z,6.20
2023-11-12T03:03:53.122Z,6.20
2023-11-12T03:04:53.025Z,6.20
2023-11-12T03:05:53.028Z,6.20
2023-11-12T03:06:52.974Z,6.20
2023-11-12T03:07:52.939Z,6.20
2023-11-12T03:08:52.989Z,6.20
2023-11-12T03:09:52.891Z,6.20
2023-11-12T03:10:54.316Z,6.20
2023-11-12T03:11:53.019Z,6.20
2023-11-12T03:12:52.854Z,6.20
2023-11-12T03:13:53.578Z,6.20
2023-11-12T03:14:53.035Z,6.20
2023-11-12T03:15:55.277Z,6.20
2023-11-12T03:16:54.238Z,6.20
2023-11-12T03:17:52.870Z,6.21
2023-11-12T03:18:52.973Z,6.21
2023-11-12T03:19:52.962Z,6.22
2023-11-12T03:20:52.745Z,6.22
2023-11-12T03:21:52.980Z,6.22
2023-11-12T03:22:52.735Z,6.22
2023-11-12T03:23:53.416Z,6.22
2023-11-12T03:24:52.708Z,6.22
2023-11-12T03:25:52.669Z,6.22
2023-11-12T03:26:53.391Z,6.21
2023-11-12T03:27:52.951Z,6.21
2023-11-12T03:28:53.335Z,6.22
2023-11-12T03:29:53.393Z,6.21
2023-11-12T03:30:52.682Z,6.21
2023-11-12T03:31:52.627Z,6.20
2023-11-12T03:32:54.080Z,6.20
2023-11-12T03:33:54.059Z,6.20
2023-11-12T03:34:53.974Z,6.20
2023-11-12T03:35:52.550Z,6.21
2023-11-12T03:36:52.596Z,6.20
2023-11-12T03:37:53.931Z,6.20
2023-11-12T03:38:52.532Z,6.20
2023-11-12T03:39:53.299Z,6.19
2023-11-12T03:40:53.889Z,6.19
2023-11-12T03:41:52.482Z,6.20
2023-11-12T03:42:53.865Z,6.20
2023-11-12T03:43:52.476Z,6.19
2023-11-12T03:44:52.415Z,6.19
2023-11-12T03:45:53.149Z,6.19
2023-11-12T03:46:52.472Z,6.19
2023-11-12T03:47:53.818Z,6.17
2023-11-12T03:48:53.111Z,6.15
2023-11-12T03:49:52.386Z,6.13
2023-11-12T03:50:52.373Z,6.11
2023-11-12T03:51:52.333Z,6.10
2023-11-12T03:52:52.327Z,6.09
2023-11-12T03:53:54.782Z,6.09
2023-11-12T03:54:52.285Z,6.08
2023-11-12T03:55:53.022Z,6.07
2023-11-12T03:56:52.293Z,6.06
2023-11-12T03:57:52.272Z,6.05
2023-11-12T03:58:53.654Z,6.05
2023-11-12T03:59:52.244Z,6.04
2023-11-12T04:00:52.269Z,6.03
2023-11-12T04:01:53.604Z,6.01
2023-11-12T04:02:52.321Z,6.00
2023-11-12T04:03:54.041Z,5.99
2023-11-12T04:04:53.783Z,5.98
2023-11-12T04:05:52.187Z,5.95
2023-11-12T04:06:52.651Z,5.91
2023-11-12T04:07:53.097Z,5.86
2023-11-12T04:08:52.162Z,5.81
2023-11-12T04:09:52.664Z,5.75
2023-11-12T04:10:52.069Z,5.69
2023-11-12T04:11:52.670Z,5.64
2023-11-12T04:12:52.808Z,5.58
2023-11-12T04:13:52.061Z,5.51
2023-11-12T04:14:52.803Z,5.45
2023-11-12T04:15:52.074Z,5.41
2023-11-12T04:16:52.007Z,5.37
2023-11-12T04:17:52.372Z,5.33
2023-11-12T04:18:51.991Z,5.29
2023-11-12T04:19:52.755Z,5.25
2023-11-12T04:20:52.679Z,5.22
2023-11-12T04:21:51.970Z,5.19
2023-11-12T04:22:51.911Z,5.16
2023-11-12T04:23:51.898Z,5.12
2023-11-12T04:24:51.886Z,5.06
2023-11-12T04:25:52.610Z,5.04
2023-11-12T04:26:52.520Z,5.01
2023-11-12T04:27:52.607Z,4.99
2023-11-12T04:28:53.791Z,4.97
2023-11-12T04:29:52.497Z,4.96
2023-11-12T04:30:52.590Z,4.94
2023-11-12T04:31:51.821Z,4.91
2023-11-12T04:32:51.846Z,4.89
2023-11-12T04:33:52.555Z,4.86
2023-11-12T04:34:51.780Z,4.81
2023-11-12T04:35:53.165Z,4.77
2023-11-12T04:36:53.151Z,4.72
2023-11-12T04:37:51.754Z,4.69
2023-11-12T04:38:53.112Z,4.66
2023-11-12T04:39:52.447Z,4.64
2023-11-12T04:40:51.686Z,4.64
2023-11-12T04:41:52.415Z,4.62
2023-11-12T04:42:51.668Z,4.59
2023-11-12T04:43:51.664Z,4.55
2023-11-12T04:44:52.357Z,4.51
2023-11-12T04:45:51.698Z,4.48
2023-11-12T04:46:53.015Z,4.45
2023-11-12T04:47:51.632Z,4.44
2023-11-12T04:48:51.841Z,4.44
2023-11-12T04:49:52.947Z,4.43
2023-11-12T04:50:51.565Z,4.45
2023-11-12T04:51:52.308Z,4.45
2023-11-12T04:52:52.303Z,4.46
2023-11-12T04:53:51.566Z,4.46
2023-11-12T04:54:52.901Z,4.44
2023-11-12T04:55:52.221Z,4.42
2023-11-12T04:56:51.470Z,4.42
2023-11-12T04:57:51.650Z,4.43
2023-11-12T04:58:51.439Z,4.44
2023-11-12T04:59:52.840Z,4.46
2023-11-12T05:00:52.180Z,4.46
2023-11-12T05:01:51.449Z,4.45
2023-11-12T05:02:52.120Z,4.44
2023-11-12T05:03:51.442Z,4.42
2023-11-12T05:04:51.366Z,4.42
2023-11-12T05:05:51.832Z,4.42
2023-11-12T05:06:51.328Z,4.41
2023-11-12T05:07:51.981Z,4.40
2023-11-12T05:08:52.705Z,4.37
2023-11-12T05:09:51.291Z,4.32
2023-11-12T05:10:52.687Z,4.29
2023-11-12T05:11:51.947Z,4.24
2023-11-12T05:12:51.273Z,4.19
2023-11-12T05:13:51.779Z,4.13
2023-11-12T05:14:51.248Z,4.08
2023-11-12T05:15:51.816Z,4.05
2023-11-12T05:16:51.794Z,4.02
2023-11-12T05:17:51.780Z,3.99
2023-11-12T05:18:52.617Z,3.95
2023-11-12T05:19:51.159Z,3.91
2023-11-12T05:20:51.142Z,3.88
2023-11-12T05:21:51.123Z,3.84
2023-11-12T05:22:51.104Z,3.82
2023-11-12T05:23:51.763Z,3.79
2023-11-12T05:24:52.655Z,3.75
2023-11-12T05:25:51.076Z,3.73
2023-11-12T05:26:52.460Z,3.72
2023-11-12T05:27:51.043Z,3.71
2023-11-12T05:28:51.076Z,3.71
2023-11-12T05:29:51.022Z,3.70
2023-11-12T05:30:51.056Z,3.69
2023-11-12T05:31:51.021Z,3.68
2023-11-12T05:32:51.107Z,3.66
2023-11-12T05:33:51.067Z,3.63
2023-11-12T05:34:51.729Z,3.60
2023-11-12T05:35:50.949Z,3.57
2023-11-12T05:36:51.683Z,3.54
2023-11-12T05:37:51.669Z,3.54
2023-11-12T05:38:50.910Z,3.54
2023-11-12T05:39:52.284Z,3.55
2023-11-12T05:40:51.659Z,3.55
2023-11-12T05:41:50.862Z,3.53
2023-11-12T05:42:52.243Z,3.50
2023-11-12T05:43:50.827Z,3.48
2023-11-12T05:44:52.209Z,3.47
2023-11-12T05:45:51.057Z,3.46
2023-11-12T05:46:50.823Z,3.45
2023-11-12T05:47:51.558Z,3.43
2023-11-12T05:48:50.789Z,3.40
2023-11-12T05:49:50.737Z,3.37
2023-11-12T05:50:51.473Z,3.34
2023-11-12T05:51:50.734Z,3.32
2023-11-12T05:52:52.656Z,3.33
2023-11-12T05:53:50.706Z,3.33
2023-11-12T05:54:50.705Z,3.34
2023-11-12T05:55:52.077Z,3.34
2023-11-12T05:56:52.074Z,3.34
2023-11-12T05:57:50.687Z,3.35
2023-11-12T05:58:52.022Z,3.37
2023-11-12T05:59:50.631Z,3.37
2023-11-12T06:00:50.638Z,3.38
2023-11-12T06:01:50.620Z,3.38
2023-11-12T06:02:50.601Z,3.39
2023-11-12T06:03:52.052Z,3.40
2023-11-12T06:04:50.572Z,3.41
2023-11-12T06:05:50.527Z,3.42
2023-11-12T06:06:51.261Z,3.43
2023-11-12T06:07:51.209Z,3.42
2023-11-12T06:08:50.511Z,3.43
2023-11-12T06:09:51.944Z,3.44
2023-11-12T06:10:50.506Z,3.45
2023-11-12T06:11:50.801Z,3.44
2023-11-12T06:12:50.806Z,3.44
2023-11-12T06:13:50.422Z,3.45
2023-11-12T06:14:51.818Z,3.45
2023-11-12T06:15:50.444Z,3.46
2023-11-12T06:16:51.834Z,3.50
2023-11-12T06:17:50.393Z,3.53
2023-11-12T06:18:50.458Z,3.55
2023-11-12T06:19:50.409Z,3.57
2023-11-12T06:20:50.575Z,3.59
2023-11-12T06:21:50.337Z,3.61
2023-11-12T06:22:51.701Z,3.62
2023-11-12T06:23:50.961Z,3.64
2023-11-12T06:24:51.018Z,3.66
2023-11-12T06:25:50.259Z,3.67
2023-11-12T06:26:50.789Z,3.68
2023-11-12T06:27:50.845Z,3.69
2023-11-12T06:28:51.206Z,3.70
2023-11-12T06:29:50.251Z,3.70
2023-11-12T06:30:50.969Z,3.70
2023-11-12T06:31:50.192Z,3.70
2023-11-12T06:32:50.246Z,3.70
2023-11-12T06:33:50.213Z,3.70
2023-11-12T06:34:50.137Z,3.71
2023-11-12T06:35:52.083Z,3.71
2023-11-12T06:36:51.562Z,3.72
2023-11-12T06:37:50.102Z,3.72
2023-11-12T06:38:55.463Z,3.73
2023-11-12T06:39:50.099Z,3.74
2023-11-12T06:40:52.033Z,3.73
2023-11-12T06:41:50.079Z,3.72
2023-11-12T06:42:50.211Z,3.72
2023-11-12T06:43:51.995Z,3.70
2023-11-12T06:44:52.001Z,3.69
2023-11-12T06:45:50.046Z,3.68
2023-11-12T06:46:50.041Z,3.67
2023-11-12T06:47:50.050Z,3.66
2023-11-12T06:48:50.799Z,3.67
2023-11-12T06:49:49.955Z,3.68
2023-11-12T06:50:50.665Z,3.69
2023-11-12T06:51:50.816Z,3.71
2023-11-12T06:52:49.951Z,3.72
2023-11-12T06:53:51.836Z,3.73
2023-11-12T06:54:50.727Z,3.72
2023-11-12T06:55:49.855Z,3.73
2023-11-12T06:56:51.252Z,3.74
2023-11-12T06:57:50.896Z,3.75
2023-11-12T06:58:49.856Z,3.76
2023-11-12T06:59:50.571Z,3.77
2023-11-12T07:00:49.940Z,3.77
2023-11-12T07:01:50.509Z,3.77
2023-11-12T07:02:49.829Z,3.78
2023-11-12T07:03:49.820Z,3.78
2023-11-12T07:04:49.749Z,3.80
2023-11-12T07:05:49.785Z,3.83
2023-11-12T07:07:01.306Z,3.83
2023-11-12T07:07:51.686Z,3.83
2023-11-12T07:08:49.722Z,3.83
2023-11-12T07:09:49.692Z,3.82
2023-11-12T07:10:49.668Z,3.81
2023-11-12T07:11:49.661Z,3.81
2023-11-12T07:12:50.406Z,3.81
2023-11-12T07:13:49.656Z,3.82
2023-11-12T07:14:51.015Z,3.85
2023-11-12T07:15:49.684Z,3.86
2023-11-12T07:16:49.592Z,3.89
2023-11-12T07:17:49.587Z,3.91
2023-11-12T07:18:54.061Z,3.93
2023-11-12T07:19:50.570Z,3.96
2023-11-12T07:20:50.961Z,3.99
2023-11-12T07:21:49.574Z,4.03
2023-11-12T07:22:49.534Z,4.07
2023-11-12T07:23:49.988Z,4.11
2023-11-12T07:24:49.492Z,4.13
2023-11-12T07:25:49.569Z,4.15
2023-11-12T07:26:49.921Z,4.17
2023-11-12T07:27:49.513Z,4.19
2023-11-12T07:28:49.959Z,4.20
2023-11-12T07:29:50.175Z,4.21
2023-11-12T07:30:49.533Z,4.22
2023-11-12T07:31:49.964Z,4.23
2023-11-12T07:32:49.461Z,4.24
2023-11-12T07:33:49.950Z,4.25
2023-11-12T07:34:49.981Z,4.25
2023-11-12T07:35:49.372Z,4.26
2023-11-12T07:36:50.743Z,4.28
2023-11-12T07:37:49.334Z,4.30
2023-11-12T07:38:50.080Z,4.31
2023-11-12T07:39:50.059Z,4.32
2023-11-12T07:40:49.998Z,4.33
2023-11-12T07:41:49.467Z,4.33
2023-11-12T07:42:50.003Z,4.33
2023-11-12T07:43:49.281Z,4.32
2023-11-12T07:44:54.494Z,4.32
2023-11-12T07:45:50.408Z,4.33
2023-11-12T07:46:50.651Z,4.35
2023-11-12T07:47:50.636Z,4.36
2023-11-12T07:48:49.190Z,4.38
2023-11-12T07:49:49.166Z,4.40
2023-11-12T07:50:49.288Z,4.42
2023-11-12T07:51:49.144Z,4.45
2023-11-12T07:52:50.533Z,4.45
2023-11-12T07:53:49.134Z,4.45
2023-11-12T07:54:51.453Z,4.45
2023-11-12T07:55:49.803Z,4.44
2023-11-12T07:56:49.069Z,4.44
2023-11-12T07:57:49.054Z,4.46
2023-11-12T07:58:49.060Z,4.46
2023-11-12T07:59:49.032Z,4.48
2023-11-12T08:00:50.434Z,4.50
2023-11-12T08:01:49.038Z,4.53
2023-11-12T08:02:49.276Z,4.54
2023-11-12T08:03:49.747Z,4.57
2023-11-12T08:04:48.968Z,4.60
2023-11-12T08:05:49.763Z,4.63
2023-11-12T08:06:49.017Z,4.65
2023-11-12T08:07:48.948Z,4.66
2023-11-12T08:08:50.299Z,4.70
2023-11-12T08:09:49.030Z,4.75
2023-11-12T08:10:48.858Z,4.80
2023-11-12T08:11:49.606Z,4.85
2023-11-12T08:12:48.885Z,4.92
2023-11-12T08:13:48.834Z,4.99
2023-11-12T08:14:48.840Z,5.07
2023-11-12T08:15:48.828Z,5.14
2023-11-12T08:16:48.779Z,5.22
2023-11-12T08:17:48.878Z,5.31
2023-11-12T08:18:48.785Z,5.39
2023-11-12T08:19:50.158Z,5.47
2023-11-12T08:20:48.739Z,5.56
2023-11-12T08:21:48.748Z,5.66
2023-11-12T08:22:48.704Z,5.71
2023-11-12T08:23:48.678Z,5.76
2023-11-12T08:24:49.052Z,5.79
2023-11-12T08:25:48.667Z,5.75
2023-11-12T08:26:49.473Z,5.74
2023-11-12T08:27:50.111Z,5.73
2023-11-12T08:28:48.639Z,5.74
2023-11-12T08:29:48.592Z,5.76
2023-11-12T08:30:48.634Z,5.79
2023-11-12T08:31:48.621Z,5.81
2023-11-12T08:32:51.065Z,5.82
2023-11-12T08:33:48.608Z,5.83
2023-11-12T08:34:48.561Z,5.82
2023-11-12T08:35:48.870Z,5.81
2023-11-12T08:36:48.588Z,5.79
2023-11-12T08:37:49.003Z,5.76
2023-11-12T08:38:48.587Z,5.74
2023-11-12T08:39:48.508Z,5.73
2023-11-12T08:40:48.976Z,5.73
2023-11-12T08:41:48.443Z,5.73
2023-11-12T08:42:49.897Z,5.73
2023-11-12T08:43:50.391Z,5.73
2023-11-12T08:44:48.424Z,5.74
2023-11-12T08:45:49.103Z,5.73
2023-11-12T08:46:50.081Z,5.73
2023-11-12T08:47:48.432Z,5.73
2023-11-12T08:48:49.112Z,5.74
2023-11-12T08:49:48.366Z,5.75
2023-11-12T08:50:48.339Z,5.76
2023-11-12T08:51:49.031Z,5.76
2023-11-12T08:52:48.328Z,5.76
2023-11-12T08:53:48.278Z,5.78
2023-11-12T08:54:48.317Z,5.79
2023-11-12T08:55:48.253Z,5.81
2023-11-12T08:56:49.001Z,5.85
2023-11-12T08:57:48.305Z,5.84
2023-11-12T08:58:48.960Z,5.84
2023-11-12T08:59:48.634Z,5.86
2023-11-12T09:00:48.222Z,5.89
2023-11-12T09:01:48.987Z,5.89
2023-11-12T09:02:48.905Z,5.90
2023-11-12T09:03:48.259Z,5.89
2023-11-12T09:04:48.899Z,5.88
2023-11-12T09:05:48.135Z,5.89
2023-11-12T09:06:50.157Z,5.92
2023-11-12T09:07:50.114Z,5.97
2023-11-12T09:08:48.106Z,6.01
2023-11-12T09:09:48.090Z,6.05
2023-11-12T09:10:48.055Z,6.10
2023-11-12T09:11:48.710Z,6.14
2023-11-12T09:12:48.056Z,6.18
2023-11-12T09:13:48.021Z,6.20
2023-11-12T09:14:48.786Z,6.23
2023-11-12T09:15:48.068Z,6.25
2023-11-12T09:16:48.045Z,6.26
2023-11-12T09:17:49.408Z,6.29
2023-11-12T09:18:48.065Z,6.33
2023-11-12T09:19:47.928Z,6.39
2023-11-12T09:20:52.104Z,6.41
2023-11-12T09:21:47.997Z,6.40
2023-11-12T09:22:49.301Z,6.44
2023-11-12T09:23:49.286Z,6.46
2023-11-12T09:25:00.751Z,6.49
2023-11-12T09:25:49.572Z,6.52
2023-11-12T09:26:47.878Z,6.51
2023-11-12T09:27:47.900Z,6.50
2023-11-12T09:28:47.813Z,6.50
2023-11-12T09:29:47.817Z,6.49
2023-11-12T09:30:57.512Z,6.46
2023-11-12T09:31:51.143Z,6.48
2023-11-12T09:32:47.844Z,6.51
2023-11-12T09:33:49.740Z,6.51
2023-11-12T09:34:47.742Z,6.53
2023-11-12T09:35:47.717Z,6.55
2023-11-12T09:36:48.482Z,6.57
2023-11-12T09:37:47.697Z,6.59
2023-11-12T09:38:48.128Z,6.59
2023-11-12T09:39:48.057Z,6.58
2023-11-12T09:40:47.661Z,6.58
2023-11-12T09:41:48.142Z,6.59
2023-11-12T09:42:47.629Z,6.63
2023-11-12T09:43:48.332Z,6.68
2023-11-12T09:44:48.189Z,6.70
2023-11-12T09:45:47.615Z,6.76
2023-11-12T09:46:48.168Z,6.80
2023-11-12T09:47:48.983Z,6.87
2023-11-12T09:48:47.583Z,6.89
2023-11-12T09:49:48.315Z,6.92
2023-11-12T09:50:48.210Z,6.91
2023-11-12T09:51:47.557Z,6.89
2023-11-12T09:52:47.509Z,6.89
2023-11-12T09:53:47.479Z,6.87
2023-11-12T09:54:48.243Z,6.82
2023-11-12T09:55:48.861Z,6.79
2023-11-12T09:56:51.061Z,6.80
2023-11-12T09:57:47.511Z,6.83
2023-11-12T09:58:47.402Z,6.83
2023-11-12T09:59:47.405Z,6.85
2023-11-12T10:00:47.476Z,6.87
2023-11-12T10:01:47.426Z,6.93
2023-11-12T10:02:49.922Z,6.95
2023-11-12T10:03:48.941Z,6.97
2023-11-12T10:04:47.454Z,7.01
2023-11-12T10:05:48.721Z,7.04
2023-11-12T10:06:47.365Z,7.02
2023-11-12T10:07:47.278Z,7.00
2023-11-12T10:08:47.275Z,6.98
2023-11-12T10:09:47.293Z,6.99
2023-11-12T10:10:48.655Z,7.01
2023-11-12T10:11:47.361Z,7.01
2023-11-12T10:12:47.302Z,7.00
2023-11-12T10:13:49.676Z,6.98
2023-11-12T10:14:47.220Z,6.99
2023-11-12T10:15:47.206Z,7.02
2023-11-12T10:16:47.220Z,7.05
2023-11-12T10:17:47.164Z,7.10
2023-11-12T10:18:48.610Z,7.13
2023-11-12T10:19:47.290Z,7.17
2023-11-12T10:20:47.122Z,7.20
2023-11-12T10:21:47.827Z,7.24
2023-11-12T10:22:47.076Z,7.32
2023-11-12T10:23:47.066Z,7.41
2023-11-12T10:24:48.525Z,7.49
2023-11-12T10:25:47.061Z,7.57
2023-11-12T10:26:48.393Z,7.60
2023-11-12T10:27:47.114Z,7.57
2023-11-12T10:28:47.012Z,7.55
2023-11-12T10:29:47.736Z,7.55
2023-11-12T10:30:47.042Z,7.58
2023-11-12T10:31:47.014Z,7.63
2023-11-12T10:32:46.956Z,7.65
2023-11-12T10:33:46.948Z,7.70
2023-11-12T10:34:47.643Z,7.74
2023-11-12T10:35:46.962Z,7.79
2023-11-12T10:36:46.932Z,7.81
2023-11-12T10:37:48.276Z,7.83
2023-11-12T10:38:46.904Z,7.86
2023-11-12T10:39:46.904Z,7.85
2023-11-12T10:40:46.843Z,7.86
2023-11-12T10:41:46.828Z,7.87
2023-11-12T10:42:48.792Z,7.91
2023-11-12T10:43:47.551Z,7.95
2023-11-12T10:44:47.482Z,7.97
2023-11-12T10:45:49.279Z,7.95
2023-11-12T10:46:46.789Z,7.94
2023-11-12T10:47:46.868Z,7.92
2023-11-12T10:48:47.547Z,7.91
2023-11-12T10:49:46.720Z,7.89
2023-11-12T10:50:48.102Z,7.91
2023-11-12T10:51:46.723Z,7.91
2023-11-12T10:52:46.718Z,7.92
2023-11-12T10:53:48.090Z,7.95
2023-11-12T10:54:46.699Z,7.98
2023-11-12T10:55:46.621Z,8.03
2023-11-12T10:56:46.626Z,8.11
2023-11-12T10:57:46.763Z,8.14
2023-11-12T10:58:46.957Z,8.17
2023-11-12T10:59:46.584Z,8.14
2023-11-12T11:00:48.532Z,8.10
2023-11-12T11:01:47.299Z,8.05
2023-11-12T11:02:46.587Z,8.03
2023-11-12T11:03:46.623Z,8.00
2023-11-12T11:04:46.777Z,7.93
2023-11-12T11:05:46.499Z,7.92
2023-11-12T11:06:47.215Z,7.90
2023-11-12T11:07:48.168Z,7.94
2023-11-12T11:08:46.449Z,7.96
2023-11-12T11:09:47.177Z,7.98
2023-11-12T11:10:46.428Z,7.98
2023-11-12T11:11:46.422Z,7.98
2023-11-12T11:12:46.423Z,7.98
2023-11-12T11:13:47.813Z,7.99
2023-11-12T11:14:48.381Z,7.97
2023-11-12T11:15:46.401Z,7.97
2023-11-12T11:16:48.460Z,8.00
2023-11-12T11:17:48.328Z,8.01
2023-11-12T11:18:48.152Z,8.04
2023-11-12T11:19:46.587Z,8.10
2023-11-12T11:20:47.079Z,8.15
2023-11-12T11:21:48.336Z,8.22
2023-11-12T11:22:47.708Z,8.25
2023-11-12T11:23:46.290Z,8.27
2023-11-12T11:24:47.705Z,8.26
2023-11-12T11:25:47.218Z,8.25
2023-11-12T11:26:46.260Z,8.26
2023-11-12T11:27:46.289Z,8.33
2023-11-12T11:28:46.252Z,8.36
2023-11-12T11:29:47.619Z,8.33
2023-11-12T11:30:47.675Z,8.25
2023-11-12T11:31:47.147Z,8.24
2023-11-12T11:32:47.652Z,8.26
2023-11-12T11:33:47.570Z,8.25
2023-11-12T11:34:46.167Z,8.27
2023-11-12T11:35:46.154Z,8.28
2023-11-12T11:36:47.026Z,8.30
2023-11-12T11:37:47.578Z,8.28
2023-11-12T11:38:47.479Z,8.34
2023-11-12T11:39:46.186Z,8.40
2023-11-12T11:40:46.276Z,8.48
2023-11-12T11:41:46.059Z,8.54
2023-11-12T11:42:46.068Z,8.53
2023-11-12T11:43:46.211Z,8.51
2023-11-12T11:44:46.079Z,8.52
2023-11-12T11:45:47.556Z,8.52
2023-11-12T11:46:47.447Z,8.55
2023-11-12T11:47:45.988Z,8.55
2023-11-12T11:48:46.009Z,8.57
2023-11-12T11:49:47.419Z,8.57
2023-11-12T11:50:47.689Z,8.62
2023-11-12T11:51:45.927Z,8.61
2023-11-12T11:52:46.625Z,8.59
2023-11-12T11:53:47.313Z,8.61
2023-11-12T11:54:48.634Z,8.63
2023-11-12T11:55:46.847Z,8.62
2023-11-12T11:56:46.565Z,8.59
2023-11-12T11:57:46.539Z,8.55
2023-11-12T11:58:46.525Z,8.49
2023-11-12T11:59:48.245Z,8.46
2023-11-12T12:00:45.830Z,8.41
2023-11-12T12:01:47.901Z,8.35
2023-11-12T12:02:46.682Z,8.31
2023-11-12T12:03:47.674Z,8.30
2023-11-12T12:04:46.501Z,8.27
2023-11-12T12:05:46.395Z,8.27
2023-11-12T12:06:46.721Z,8.29
2023-11-12T12:07:45.818Z,8.34
2023-11-12T12:08:45.757Z,8.37
2023-11-12T12:09:47.083Z,8.38
2023-11-12T12:10:48.320Z,8.35
2023-11-12T12:11:45.650Z,8.35
2023-11-12T12:12:48.105Z,8.37
2023-11-12T12:13:46.347Z,8.36
2023-11-12T12:14:45.696Z,8.34
2023-11-12T12:15:45.615Z,8.35
2023-11-12T12:16:46.857Z,8.37
2023-11-12T12:17:48.239Z,8.39
2023-11-12T12:18:45.610Z,8.41
2023-11-12T12:19:46.222Z,8.45
2023-11-12T12:20:47.279Z,8.46
2023-11-12T12:21:46.512Z,8.50
2023-11-12T12:22:46.110Z,8.54
2023-11-12T12:23:47.936Z,8.55
2023-11-12T12:24:46.206Z,8.56
2023-11-12T12:25:46.839Z,8.57
2023-11-12T12:26:48.093Z,8.59
2023-11-12T12:27:45.536Z,8.63
2023-11-12T12:28:46.791Z,8.67
2023-11-12T12:29:47.308Z,8.70
2023-11-12T12:30:45.409Z,8.70
2023-11-12T12:31:46.160Z,8.66
2023-11-12T12:32:45.385Z,8.61
2023-11-12T12:33:48.082Z,8.60
2023-11-12T12:34:46.734Z,8.59
2023-11-12T12:35:48.015Z,8.60
2023-11-12T12:36:46.291Z,8.61
2023-11-12T12:37:47.881Z,8.58
2023-11-12T12:38:45.259Z,8.54
2023-11-12T12:39:45.999Z,8.48
2023-11-12T12:40:45.248Z,8.42
2023-11-12T12:41:46.626Z,8.38
2023-11-12T12:42:47.693Z,8.36
2023-11-12T12:43:45.184Z,8.36
2023-11-12T12:44:46.558Z,8.37
2023-11-12T12:45:46.616Z,8.37
2023-11-12T12:46:45.188Z,8.38
2023-11-12T12:47:47.632Z,8.37
2023-11-12T12:48:45.196Z,8.40
2023-11-12T12:49:45.809Z,8.44
2023-11-12T12:50:45.806Z,8.46
2023-11-12T12:51:45.117Z,8.46
2023-11-12T12:52:47.702Z,8.47
2023-11-12T12:53:47.509Z,8.45
2023-11-12T12:54:45.831Z,8.45
2023-11-12T12:55:47.733Z,8.46
2023-11-12T12:56:45.014Z,8.46
2023-11-12T12:57:46.418Z,8.46
2023-11-12T12:58:45.037Z,8.47
2023-11-12T12:59:44.965Z,8.46
2023-11-12T13:00:45.830Z,8.47
2023-11-12T13:01:45.026Z,8.50
2023-11-12T13:02:44.974Z,8.56
2023-11-12T13:03:44.961Z,8.60
2023-11-12T13:04:44.913Z,8.66
2023-11-12T13:05:45.614Z,8.74
2023-11-12T13:06:45.656Z,8.81
2023-11-12T13:07:44.887Z,8.78
2023-11-12T13:08:46.259Z,8.77
2023-11-12T13:09:44.857Z,8.75
2023-11-12T13:10:44.804Z,8.68
2023-11-12T13:11:44.846Z,8.67
2023-11-12T13:12:44.803Z,8.68
2023-11-12T13:13:46.186Z,8.66
2023-11-12T13:14:45.521Z,8.65
2023-11-12T13:15:44.756Z,8.60
2023-11-12T13:16:45.079Z,8.59
2023-11-12T13:17:45.134Z,8.57
2023-11-12T13:18:44.715Z,8.55